Time;durP1;ratioP1;P1;durP2;ratioP2;P2;SDS_P1;SDS_P2;PMS_P1;PMS_P2;Temp;Humidity;BMP_temperature;BMP_pressure;BME280_temperature;BME280_humidity;BME280_pressure;Samples;Min_cycle;Max_cycle;Signal;HPM_P1;HPM_P2
2023/07/15 00:00:45;;;;;;;15.15;8.07;;;23.20;99.90;;;;;;4974516;28;20395;-75
2023/07/15 00:03:12;;;;;;;14.50;8.43;;;23.20;99.90;;;;;;4974700;28;20023;-74
2023/07/15 00:05:39;;;;;;;16.42;8.73;;;23.10;99.90;;;;;;4974528;28;20504;-75
2023/07/15 00:08:06;;;;;;;25.50;10.55;;;23.10;99.90;;;;;;4984736;28;20050;-75
2023/07/15 00:10:33;;;;;;;20.67;9.77;;;23.00;99.90;;;;;;4974161;28;20485;-75
2023/07/15 00:13:00;;;;;;;14.93;8.93;;;22.90;99.90;;;;;;4974243;28;20077;-75
2023/07/15 00:15:26;;;;;;;16.25;8.52;;;22.90;99.90;;;;;;4974344;28;20022;-75
2023/07/15 00:17:52;;;;;;;14.95;8.07;;;22.90;99.90;;;;;;4974426;28;20081;-76
2023/07/15 00:20:19;;;;;;;13.30;7.95;;;22.90;99.90;;;;;;4976213;28;20023;-76
2023/07/15 00:22:46;;;;;;;15.48;7.93;;;23.00;99.90;;;;;;4977165;28;20734;-74
2023/07/15 00:25:17;;;;;;;13.57;8.10;;;22.90;99.90;;;;;;4974153;28;20026;-75
2023/07/15 00:27:44;;;;;;;13.75;8.00;;;22.90;99.90;;;;;;4974050;28;20118;-75
2023/07/15 00:30:13;;;;;;;14.82;8.60;;;22.90;99.90;;;;;;4973101;28;20105;-75
2023/07/15 00:32:41;;;;;;;17.25;7.97;;;22.90;99.90;;;;;;4973972;28;20027;-76
2023/07/15 00:35:18;;;;;;;11.98;7.78;;;22.80;99.90;;;;;;4973055;28;20118;-75
2023/07/15 00:37:44;;;;;;;12.98;7.25;;;22.70;99.90;;;;;;4974013;28;20050;-74
2023/07/15 00:40:11;;;;;;;19.08;8.18;;;22.50;99.90;;;;;;4973698;28;20472;-74
2023/07/15 00:43:18;;;;;;;12.18;7.72;;;22.40;99.90;;;;;;4974245;28;20362;-76
2023/07/15 00:45:44;;;;;;;13.50;8.35;;;22.50;99.90;;;;;;4917436;29;20086;-76
2023/07/15 00:48:21;;;;;;;14.98;8.27;;;22.50;99.90;;;;;;4933061;29;20034;-76
2023/07/15 00:50:47;;;;;;;14.30;7.25;;;22.40;99.90;;;;;;4926306;29;20489;-76
2023/07/15 00:53:13;;;;;;;10.85;7.55;;;22.40;99.90;;;;;;4933110;29;20069;-73
2023/07/15 00:55:39;;;;;;;13.32;8.52;;;22.30;99.90;;;;;;4932378;29;20027;-74
2023/07/15 00:58:05;;;;;;;12.20;8.23;;;22.20;99.90;;;;;;4933140;29;20614;-74
2023/07/15 01:00:31;;;;;;;12.35;7.30;;;22.00;99.90;;;;;;4933049;29;20042;-75
2023/07/15 01:02:57;;;;;;;12.80;8.30;;;21.90;99.90;;;;;;4933040;29;20114;-75
2023/07/15 01:05:23;;;;;;;13.15;8.38;;;21.90;99.90;;;;;;4916311;29;20036;-74
2023/07/15 01:07:49;;;;;;;13.82;8.57;;;21.80;99.90;;;;;;4921010;29;20409;-73
2023/07/15 01:10:15;;;;;;;13.98;9.32;;;21.80;99.90;;;;;;4932744;29;20099;-76
2023/07/15 01:12:40;;;;;;;15.35;8.68;;;21.90;99.90;;;;;;4933082;29;20031;-73
2023/07/15 01:15:06;;;;;;;15.02;8.57;;;22.00;99.90;;;;;;4921111;29;20537;-76
2023/07/15 01:17:32;;;;;;;16.80;9.48;;;21.90;99.90;;;;;;4936409;29;20060;-76
2023/07/15 01:19:58;;;;;;;16.98;8.02;;;21.80;99.90;;;;;;4917295;29;20040;-76
2023/07/15 01:22:25;;;;;;;14.23;8.88;;;21.90;99.90;;;;;;4953290;28;20396;-75
2023/07/15 01:24:51;;;;;;;12.38;8.20;;;21.80;99.90;;;;;;4965979;28;20034;-72
2023/07/15 01:27:18;;;;;;;15.50;8.80;;;21.80;99.90;;;;;;4958236;28;20069;-73
2023/07/15 01:29:45;;;;;;;14.65;7.88;;;21.80;99.90;;;;;;4973532;28;20476;-74
2023/07/15 01:32:11;;;;;;;14.00;8.00;;;21.70;99.90;;;;;;4955880;28;20039;-76
2023/07/15 01:34:36;;;;;;;12.93;7.75;;;21.70;99.90;;;;;;4972179;28;20461;-75
2023/07/15 01:37:03;;;;;;;11.48;7.55;;;21.70;99.90;;;;;;4973009;28;20113;-73
2023/07/15 01:39:29;;;;;;;14.57;8.80;;;21.70;99.90;;;;;;4955841;28;20031;-76
2023/07/15 01:41:55;;;;;;;15.63;8.25;;;;;;;;;;4971287;28;20035;-73
2023/07/15 01:44:23;;;;;;;12.30;8.25;;;21.80;99.90;;;;;;4971892;28;20562;-72
2023/07/15 01:46:49;;;;;;;15.23;8.27;;;21.80;99.90;;;;;;4972914;28;20503;-73
2023/07/15 01:49:15;;;;;;;12.18;8.27;;;21.80;99.90;;;;;;4973425;28;20139;-73
2023/07/15 01:51:41;;;;;;;12.85;9.38;;;21.80;99.90;;;;;;4972760;28;20101;-76
2023/07/15 01:54:06;;;;;;;11.63;8.13;;;21.70;99.90;;;;;;4973461;28;20027;-76
2023/07/15 01:56:32;;;;;;;13.18;8.35;;;21.70;99.90;;;;;;4972788;28;20035;-73
2023/07/15 01:58:58;;;;;;;13.35;8.02;;;21.60;99.90;;;;;;4971670;28;20126;-76
2023/07/15 02:01:25;;;;;;;12.68;8.55;;;21.70;99.90;;;;;;4971561;28;20031;-74
2023/07/15 02:03:51;;;;;;;17.70;8.18;;;21.70;99.90;;;;;;4973080;28;20026;-76
2023/07/15 02:06:17;;;;;;;10.13;7.20;;;21.60;99.90;;;;;;4972793;28;20027;-76
2023/07/15 02:08:44;;;;;;;12.68;8.18;;;21.60;99.90;;;;;;4947273;28;20069;-76
2023/07/15 02:11:10;;;;;;;14.85;8.57;;;21.60;99.90;;;;;;4971542;28;20035;-75
2023/07/15 02:13:36;;;;;;;13.30;7.50;;;21.60;99.90;;;;;;4955413;28;20491;-74
2023/07/15 02:16:02;;;;;;;13.20;7.63;;;21.60;99.90;;;;;;4955475;28;20026;-75
2023/07/15 02:18:28;;;;;;;17.25;7.97;;;21.50;99.90;;;;;;4975001;28;20547;-74
2023/07/15 02:20:54;;;;;;;14.32;8.32;;;21.40;99.90;;;;;;4976451;28;20492;-76
2023/07/15 02:23:20;;;;;;;16.48;8.43;;;21.30;99.90;;;;;;4959390;28;20027;-74
2023/07/15 02:25:45;;;;;;;13.50;8.52;;;21.30;99.90;;;;;;4958293;28;20027;-73
2023/07/15 02:28:11;;;;;;;13.30;8.60;;;21.20;99.90;;;;;;4976576;28;20038;-74
2023/07/15 02:30:37;;;;;;;14.23;8.30;;;21.10;99.90;;;;;;4976403;28;20042;-76
2023/07/15 02:33:06;;;;;;;12.98;9.13;;;21.10;99.90;;;;;;4976522;28;20035;-73
2023/07/15 02:35:33;;;;;;;14.85;8.82;;;21.00;99.90;;;;;;4976125;28;20019;-72
2023/07/15 02:38:02;;;;;;;12.55;8.57;;;21.00;99.90;;;;;;4976366;28;20367;-74
2023/07/15 02:40:28;;;;;;;13.75;9.15;;;20.90;99.90;;;;;;4958486;28;20038;-74
2023/07/15 02:42:54;;;;;;;16.58;8.48;;;21.00;99.90;;;;;;4959853;28;20026;-72
2023/07/15 02:45:20;;;;;;;12.63;9.18;;;21.10;99.90;;;;;;4991655;28;20416;-76
2023/07/15 02:47:46;;;;;;;22.20;9.70;;;21.10;99.90;;;;;;4977932;28;20400;-75
2023/07/15 02:50:11;;;;;;;12.93;9.38;;;21.10;99.90;;;;;;4995303;28;20023;-72
2023/07/15 02:52:38;;;;;;;13.93;9.05;;;21.10;99.90;;;;;;4988031;28;20456;-73
2023/07/15 02:55:08;;;;;;;18.08;9.20;;;21.20;99.90;;;;;;4958830;28;20038;-75
2023/07/15 02:57:34;;;;;;;14.38;8.65;;;21.10;99.90;;;;;;4975625;28;20372;-75
2023/07/15 03:00:00;;;;;;;16.52;8.88;;;20.80;99.90;;;;;;4974655;28;20113;-72
2023/07/15 03:02:28;;;;;;;14.65;9.60;;;20.80;99.90;;;;;;4975771;28;20057;-73
2023/07/15 03:04:54;;;;;;;15.93;8.52;;;20.90;99.90;;;;;;4975786;28;20029;-73
2023/07/15 03:07:20;;;;;;;14.45;9.05;;;20.80;99.90;;;;;;4975716;28;20042;-74
2023/07/15 03:09:46;;;;;;;13.57;9.68;;;20.70;99.90;;;;;;4975811;28;20117;-75
2023/07/15 03:12:12;;;;;;;14.48;9.93;;;20.70;99.90;;;;;;4975712;28;20030;-78
2023/07/15 03:14:38;;;;;;;13.77;9.20;;;20.80;99.90;;;;;;4956243;28;20032;-75
2023/07/15 03:17:04;;;;;;;15.07;10.57;;;20.60;99.90;;;;;;4958329;28;20038;-75
2023/07/15 03:19:32;;;;;;;15.13;9.77;;;20.70;99.90;;;;;;4975376;28;20046;-76
2023/07/15 03:21:59;;;;;;;13.75;9.52;;;20.80;99.90;;;;;;4958341;28;20038;-74
2023/07/15 03:24:25;;;;;;;14.50;9.52;;;20.80;99.90;;;;;;4975415;28;20532;-73
2023/07/15 03:26:52;;;;;;;13.13;9.15;;;20.80;99.90;;;;;;4974042;28;20077;-75
2023/07/15 03:29:19;;;;;;;16.80;10.15;;;20.80;99.90;;;;;;4972860;28;20023;-75
2023/07/15 03:31:45;;;;;;;14.93;9.43;;;20.80;99.90;;;;;;4969631;28;20035;-73
2023/07/15 03:34:10;;;;;;;17.67;9.73;;;20.80;99.90;;;;;;4973915;28;20042;-75
2023/07/15 03:36:37;;;;;;;16.30;10.25;;;20.80;99.90;;;;;;4973790;28;20503;-72
2023/07/15 03:39:02;;;;;;;15.73;10.00;;;20.80;99.90;;;;;;4976829;28;20027;-75
2023/07/15 03:41:28;;;;;;;14.15;10.05;;;20.90;99.90;;;;;;4973686;28;20086;-73
2023/07/15 03:43:54;;;;;;;16.95;9.80;;;20.90;99.90;;;;;;4975110;28;20030;-74
2023/07/15 03:46:22;;;;;;;16.63;9.85;;;20.90;99.90;;;;;;4973796;28;20027;-73
2023/07/15 03:48:47;;;;;;;15.10;9.75;;;20.80;99.90;;;;;;4974975;28;20026;-75
2023/07/15 03:51:13;;;;;;;15.63;9.65;;;20.90;99.90;;;;;;4974926;28;20030;-75
2023/07/15 03:53:39;;;;;;;13.45;8.82;;;21.50;99.90;;;;;;4980610;28;20053;-75
2023/07/15 03:56:05;;;;;;;13.98;8.70;;;22.10;99.90;;;;;;4982049;28;20029;-75
2023/07/15 03:58:30;;;;;;;21.20;9.18;;;22.80;99.90;;;;;;4974650;28;20453;-75
2023/07/15 04:00:56;;;;;;;14.60;7.53;;;23.60;99.90;;;;;;4975012;28;20061;-73
2023/07/15 04:03:22;;;;;;;18.10;8.85;;;24.10;99.90;;;;;;4974411;28;20069;-73
2023/07/15 04:05:48;;;;;;;13.25;7.68;;;24.50;99.90;;;;;;4974679;28;20114;-75
2023/07/15 04:08:14;;;;;;;14.63;8.02;;;25.10;99.90;;;;;;4974301;28;20073;-75
2023/07/15 04:10:39;;;;;;;10.20;7.25;;;25.60;99.90;;;;;;4987675;28;20069;-74
2023/07/15 04:13:05;;;;;;;12.93;7.15;;;25.80;99.90;;;;;;4987020;28;20496;-74
2023/07/15 04:15:31;;;;;;;14.20;8.40;;;26.20;99.90;;;;;;4985775;28;20026;-74
2023/07/15 04:17:57;;;;;;;9.75;7.22;;;26.40;99.90;;;;;;4980960;28;20015;-74
2023/07/15 04:20:23;;;;;;;14.23;7.38;;;27.00;99.90;;;;;;4982424;28;20459;-74
2023/07/15 04:22:49;;;;;;;12.27;7.10;;;27.00;99.90;;;;;;4992474;28;20029;-74
2023/07/15 04:25:14;;;;;;;15.30;7.68;;;27.30;99.90;;;;;;4983658;28;20058;-72
2023/07/15 04:27:41;;;;;;;12.13;7.30;;;27.20;99.90;;;;;;4974053;28;20074;-73
2023/07/15 04:30:09;;;;;;;18.30;8.30;;;27.70;99.90;;;;;;4974138;28;20014;-74
2023/07/15 04:32:36;;;;;;;8.93;7.28;;;28.60;99.90;;;;;;4974298;28;20117;-73
2023/07/15 04:35:02;;;;;;;12.27;7.55;;;28.80;99.90;;;;;;4974054;28;20122;-73
2023/07/15 04:37:30;;;;;;;13.25;7.63;;;28.60;99.90;;;;;;4974212;28;20105;-74
2023/07/15 04:39:57;;;;;;;13.60;8.23;;;;;;;;;;4986575;28;20033;-73
2023/07/15 04:42:23;;;;;;;16.95;8.32;;;28.60;99.90;;;;;;4987400;28;20041;-74
2023/07/15 04:44:49;;;;;;;12.57;7.53;;;28.90;99.90;;;;;;4993214;28;20027;-73
2023/07/15 04:47:14;;;;;;;13.75;7.60;;;29.30;99.90;;;;;;4972793;28;20042;-72
2023/07/15 04:49:40;;;;;;;14.30;8.13;;;30.90;99.90;;;;;;4969380;28;20027;-73
2023/07/15 04:52:06;;;;;;;9.60;7.25;;;31.50;98.30;;;;;;4974062;28;20102;-72
2023/07/15 04:54:32;;;;;;;14.65;7.97;;;;;;;;;;4973908;28;20110;-72
2023/07/15 04:56:58;;;;;;;17.50;7.57;;;31.10;98.80;;;;;;4973732;28;20464;-72
2023/07/15 04:59:25;;;;;;;15.35;8.02;;;31.70;98.70;;;;;;4967790;28;20047;-75
2023/07/15 05:01:51;;;;;;;12.43;7.22;;;31.90;99.90;;;;;;4973410;28;20034;-74
2023/07/15 05:04:17;;;;;;;14.77;8.82;;;31.40;99.90;;;;;;4971831;28;20038;-72
2023/07/15 05:06:43;;;;;;;11.82;7.82;;;29.70;99.90;;;;;;4972883;28;20039;-74
2023/07/15 05:09:10;;;;;;;11.15;8.35;;;;;;;;;;4965400;28;20370;-73
2023/07/15 05:11:35;;;;;;;12.75;8.85;;;28.80;99.90;;;;;;4968323;28;20038;-75
2023/07/15 05:14:02;;;;;;;15.10;9.32;;;28.00;99.90;;;;;;4972976;28;20031;-71
2023/07/15 05:16:28;;;;;;;14.45;9.48;;;;;;;;;;4973479;28;20134;-74
2023/07/15 05:18:54;;;;;;;14.55;8.88;;;26.60;99.90;;;;;;4964240;28;20027;-77
2023/07/15 05:21:20;;;;;;;17.17;9.52;;;27.10;99.90;;;;;;4973683;28;20123;-77
2023/07/15 05:23:46;;;;;;;14.77;8.60;;;;;;;;;;4973080;28;20045;-71
2023/07/15 05:26:13;;;;;;;15.35;10.02;;;;;;;;;;4971873;28;20476;-72
2023/07/15 05:28:39;;;;;;;12.52;8.52;;;26.70;99.90;;;;;;4966289;28;20392;-73
2023/07/15 05:31:04;;;;;;;12.07;8.43;;;26.60;99.90;;;;;;4973462;28;20023;-74
2023/07/15 05:33:31;;;;;;;10.85;7.43;;;26.90;99.90;;;;;;4973206;28;20432;-72
2023/07/15 05:35:57;;;;;;;10.70;7.63;;;27.10;99.90;;;;;;4971551;28;20097;-72
2023/07/15 05:38:24;;;;;;;12.38;8.60;;;27.20;99.90;;;;;;4966786;28;20110;-76
2023/07/15 05:40:51;;;;;;;12.55;8.10;;;26.20;99.90;;;;;;4970308;28;20462;-75
2023/07/15 05:43:18;;;;;;;13.65;8.25;;;26.10;99.90;;;;;;4972877;28;20058;-74
2023/07/15 05:45:44;;;;;;;12.88;7.93;;;26.50;99.90;;;;;;4972999;28;20026;-73
2023/07/15 05:48:10;;;;;;;13.60;8.65;;;27.00;99.90;;;;;;4971379;28;20496;-77
2023/07/15 05:50:37;;;;;;;13.10;8.43;;;27.30;99.90;;;;;;4973102;28;20026;-73
2023/07/15 05:53:06;;;;;;;10.65;7.57;;;27.50;99.90;;;;;;4978344;28;20178;-72
2023/07/15 05:55:33;;;;;;;12.77;7.07;;;27.40;99.90;;;;;;4979389;28;20050;-74
2023/07/15 05:58:09;;;;;;;11.95;6.93;;;27.50;99.90;;;;;;4979466;28;20019;-73
2023/07/15 06:00:36;;;;;;;13.38;7.95;;;27.80;99.90;;;;;;4979605;28;20037;-76
2023/07/15 06:03:03;;;;;;;11.57;7.22;;;27.80;99.90;;;;;;4979349;28;20037;-74
2023/07/15 06:05:29;;;;;;;11.30;7.40;;;28.10;99.90;;;;;;4979459;28;20433;-77
2023/07/15 06:07:55;;;;;;;15.30;7.13;;;28.20;99.90;;;;;;4978753;28;20090;-76
2023/07/15 06:10:21;;;;;;;9.02;6.80;;;28.20;99.90;;;;;;4979570;28;20037;-77
2023/07/15 06:12:47;;;;;;;10.95;7.05;;;27.90;99.90;;;;;;4978979;28;20022;-72
2023/07/15 06:15:12;;;;;;;12.63;7.38;;;28.20;99.90;;;;;;4979361;28;20366;-76
2023/07/15 06:17:38;;;;;;;12.77;6.90;;;28.10;99.90;;;;;;4978903;28;20102;-76
2023/07/15 06:20:05;;;;;;;9.35;6.10;;;28.40;99.90;;;;;;4976252;28;20031;-73
2023/07/15 06:22:31;;;;;;;11.40;6.68;;;28.60;99.90;;;;;;4979269;28;20065;-77
2023/07/15 06:24:57;;;;;;;11.82;6.63;;;28.90;99.80;;;;;;4979199;28;20055;-74
2023/07/15 06:27:23;;;;;;;11.73;6.20;;;28.80;99.90;;;;;;4979145;28;20078;-76
2023/07/15 06:29:49;;;;;;;10.93;7.25;;;29.00;98.20;;;;;;4978936;28;20054;-74
2023/07/15 06:32:15;;;;;;;11.10;6.18;;;28.80;98.80;;;;;;4979044;28;20031;-74
2023/07/15 06:34:41;;;;;;;11.00;6.40;;;28.60;98.10;;;;;;4978778;28;20042;-75
2023/07/15 06:37:06;;;;;;;10.45;7.00;;;29.00;98.30;;;;;;4981888;28;20051;-72
2023/07/15 06:39:32;;;;;;;8.40;6.03;;;28.10;97.80;;;;;;4979209;28;20477;-74
2023/07/15 06:41:58;;;;;;;11.23;5.97;;;28.70;98.20;;;;;;4978879;28;20045;-75
2023/07/15 06:44:24;;;;;;;12.73;5.57;;;29.10;99.90;;;;;;4987395;28;20480;-72
2023/07/15 06:46:50;;;;;;;9.10;5.82;;;29.50;99.50;;;;;;4998298;28;20041;-75
2023/07/15 06:49:16;;;;;;;10.20;5.75;;;29.50;96.60;;;;;;4998365;28;20053;-72
2023/07/15 06:51:42;;;;;;;7.82;5.10;;;29.20;97.80;;;;;;4998338;28;20484;-74
2023/07/15 06:54:08;;;;;;;8.13;5.35;;;29.60;97.80;;;;;;4979052;28;20122;-73
2023/07/15 06:56:34;;;;;;;8.00;5.55;;;29.70;95.50;;;;;;4978558;28;20567;-72
2023/07/15 06:59:00;;;;;;;7.65;5.20;;;29.70;95.30;;;;;;4978946;28;20034;-74
2023/07/15 07:01:25;;;;;;;11.52;5.30;;;29.80;96.00;;;;;;4968534;28;20030;-74
2023/07/15 07:03:51;;;;;;;9.45;5.20;;;29.70;94.30;;;;;;4974202;28;20489;-77
2023/07/15 07:06:17;;;;;;;7.85;5.38;;;29.20;96.10;;;;;;4968474;28;20057;-70
2023/07/15 07:08:43;;;;;;;8.32;5.57;;;29.50;94.70;;;;;;4975603;28;20524;-71
2023/07/15 07:11:09;;;;;;;8.27;5.70;;;29.60;94.80;;;;;;4972237;28;20118;-73
2023/07/15 07:13:35;;;;;;;10.23;5.65;;;30.00;95.50;;;;;;4970420;28;20031;-74
2023/07/15 07:16:00;;;;;;;8.93;5.60;;;30.10;95.20;;;;;;4967472;28;20031;-75
2023/07/15 07:18:27;;;;;;;9.32;5.40;;;30.50;94.90;;;;;;4971779;28;20039;-71
2023/07/15 07:20:59;;;;;;;11.05;5.78;;;30.40;98.00;;;;;;4970272;28;20023;-76
2023/07/15 07:23:25;;;;;;;9.00;6.05;;;;;;;;;;4962358;28;20026;-72
2023/07/15 07:25:52;;;;;;;8.50;5.78;;;30.80;99.90;;;;;;4975414;28;20035;-76
2023/07/15 07:28:23;;;;;;;8.88;5.47;;;31.00;95.20;;;;;;4972215;28;20052;-76
2023/07/15 07:30:49;;;;;;;9.65;5.50;;;30.80;94.40;;;;;;4965509;28;20031;-76
2023/07/15 07:33:15;;;;;;;10.10;5.38;;;30.30;95.10;;;;;;4974950;28;20030;-76
2023/07/15 07:35:45;;;;;;;8.20;5.47;;;30.50;95.10;;;;;;4974809;28;20033;-77
2023/07/15 07:38:11;;;;;;;8.55;5.97;;;30.50;95.00;;;;;;4973933;28;20023;-74
2023/07/15 07:40:37;;;;;;;9.70;5.68;;;30.10;94.60;;;;;;4974889;28;20033;-72
2023/07/15 07:43:04;;;;;;;12.40;6.10;;;30.20;95.10;;;;;;4975328;28;20110;-74
2023/07/15 07:45:30;;;;;;;14.23;7.35;;;30.20;94.80;;;;;;4957436;28;20439;-75
2023/07/15 07:47:56;;;;;;;11.57;6.20;;;30.30;95.30;;;;;;4974777;28;20127;-75
2023/07/15 07:50:22;;;;;;;9.68;6.38;;;30.00;94.50;;;;;;4974736;28;20023;-76
2023/07/15 07:52:48;;;;;;;11.27;6.10;;;30.30;94.30;;;;;;4975188;28;20042;-73
2023/07/15 07:55:14;;;;;;;13.23;7.00;;;30.40;95.00;;;;;;4974543;28;20022;-76
2023/07/15 07:57:39;;;;;;;10.35;6.63;;;30.50;95.00;;;;;;4975000;28;20039;-71
2023/07/15 08:00:06;;;;;;;11.00;6.60;;;30.60;94.80;;;;;;4974615;28;20050;-72
2023/07/15 08:02:32;;;;;;;7.45;5.93;;;30.70;94.70;;;;;;4974832;28;20113;-72
2023/07/15 08:04:58;;;;;;;11.93;6.13;;;30.80;94.50;;;;;;4980866;28;20803;-76
2023/07/15 08:07:23;;;;;;;12.75;6.32;;;31.10;95.60;;;;;;4974268;28;20449;-75
2023/07/15 08:09:49;;;;;;;9.98;5.18;;;31.50;94.80;;;;;;4974670;28;20027;-71
2023/07/15 08:12:17;;;;;;;9.55;5.57;;;31.70;96.70;;;;;;4974523;28;20033;-74
2023/07/15 08:14:42;;;;;;;8.80;5.85;;;31.20;96.70;;;;;;4977974;28;20021;-72
2023/07/15 08:17:08;;;;;;;9.10;6.20;;;31.50;94.50;;;;;;4981294;28;20031;-77
2023/07/15 08:19:34;;;;;;;8.68;5.90;;;30.60;93.50;;;;;;4968860;28;20019;-71
2023/07/15 08:22:00;;;;;;;8.95;5.43;;;30.80;94.60;;;;;;4974219;28;20027;-72
2023/07/15 08:24:26;;;;;;;7.28;5.05;;;31.10;93.30;;;;;;4974277;28;20110;-76
2023/07/15 08:26:51;;;;;;;10.40;4.65;;;31.10;93.30;;;;;;4968973;28;20023;-76
2023/07/15 08:29:17;;;;;;;7.55;5.25;;;31.10;92.90;;;;;;4970852;28;20045;-73
2023/07/15 08:31:43;;;;;;;10.40;4.95;;;31.40;91.70;;;;;;4967468;28;20097;-73
2023/07/15 08:34:09;;;;;;;8.57;4.90;;;31.40;91.90;;;;;;4974023;28;20037;-73
2023/07/15 08:36:36;;;;;;;6.72;4.85;;;31.00;92.40;;;;;;4974346;28;20069;-75
2023/07/15 08:39:02;;;;;;;7.70;4.65;;;;;;;;;;4973930;28;20073;-77
2023/07/15 08:41:28;;;;;;;7.93;4.35;;;32.70;92.80;;;;;;4967654;28;20042;-75
2023/07/15 08:43:54;;;;;;;6.55;5.22;;;32.00;92.20;;;;;;4972740;28;20034;-76
2023/07/15 08:46:30;;;;;;;9.18;5.28;;;32.00;91.80;;;;;;4973522;28;20117;-75
2023/07/15 08:48:58;;;;;;;8.32;4.97;;;32.10;91.00;;;;;;4962759;28;20034;-76
2023/07/15 08:51:38;;;;;;;9.40;5.10;;;31.50;91.20;;;;;;4966133;28;20136;-76
2023/07/15 08:54:06;;;;;;;9.93;5.28;;;31.40;92.30;;;;;;4973966;28;20074;-73
2023/07/15 08:56:35;;;;;;;10.60;4.55;;;31.50;91.90;;;;;;4972504;28;20034;-72
2023/07/15 08:59:05;;;;;;;9.93;5.63;;;31.30;91.80;;;;;;4971507;28;20089;-75
2023/07/15 09:01:31;;;;;;;8.73;4.38;;;31.80;92.40;;;;;;4964175;28;20023;-75
2023/07/15 09:03:57;;;;;;;10.82;4.63;;;31.70;91.20;;;;;;4973002;28;20027;-72
2023/07/15 09:06:23;;;;;;;7.75;4.88;;;31.90;91.90;;;;;;4971920;28;20026;-73
2023/07/15 09:08:52;;;;;;;5.35;4.03;;;32.10;91.90;;;;;;4973255;28;20055;-76
2023/07/15 09:11:18;;;;;;;9.32;4.60;;;32.00;90.90;;;;;;4970168;28;20103;-72
2023/07/15 09:13:45;;;;;;;10.35;5.35;;;31.30;90.20;;;;;;4971896;28;20365;-70
2023/07/15 09:16:10;;;;;;;14.60;5.97;;;31.60;90.90;;;;;;4973073;28;20395;-74
2023/07/15 09:18:40;;;;;;;8.68;4.53;;;31.60;91.50;;;;;;4969635;28;20105;-71
2023/07/15 09:21:16;;;;;;;8.45;4.88;;;31.70;91.20;;;;;;4973572;28;20555;-71
2023/07/15 09:23:44;;;;;;;8.57;5.32;;;31.60;92.10;;;;;;4973527;28;20114;-74
2023/07/15 09:26:11;;;;;;;8.38;5.30;;;31.90;92.30;;;;;;4972984;28;20444;-71
2023/07/15 09:28:38;;;;;;;9.43;4.90;;;31.90;91.20;;;;;;4973436;28;20027;-76
2023/07/15 09:31:05;;;;;;;7.03;4.80;;;31.60;91.00;;;;;;4972969;28;20121;-75
2023/07/15 09:33:30;;;;;;;13.25;4.57;;;31.90;91.10;;;;;;4973180;28;20078;-75
2023/07/15 09:35:56;;;;;;;5.32;4.53;;;31.50;90.70;;;;;;4972859;28;20023;-75
2023/07/15 09:38:22;;;;;;;8.23;5.10;;;31.50;92.40;;;;;;4973670;28;20023;-76
2023/07/15 09:40:49;;;;;;;11.60;4.95;;;31.70;91.10;;;;;;4971478;28;20402;-76
2023/07/15 09:43:15;;;;;;;8.35;4.90;;;31.60;91.80;;;;;;4971512;28;20026;-71
2023/07/15 09:45:41;;;;;;;9.05;5.60;;;31.70;91.40;;;;;;4971510;28;20110;-76
2023/07/15 09:48:12;;;;;;;9.82;5.55;;;31.60;91.60;;;;;;4967576;28;20034;-75
2023/07/15 09:50:39;;;;;;;9.90;4.70;;;32.00;92.60;;;;;;4980647;28;20027;-72
2023/07/15 09:53:05;;;;;;;7.20;5.07;;;31.60;90.00;;;;;;4992364;28;20101;-74
2023/07/15 09:55:33;;;;;;;13.57;4.90;;;31.90;90.90;;;;;;4992384;28;20469;-73
2023/07/15 09:58:22;;;;;;;7.05;5.03;;;32.00;92.20;;;;;;4992351;28;20034;-75
2023/07/15 10:00:52;;;;;;;10.85;5.22;;;31.90;91.80;;;;;;4952147;28;20389;-74
2023/07/15 10:03:30;;;;;;;10.05;5.32;;;32.10;91.40;;;;;;4972897;28;20030;-74
2023/07/15 10:05:56;;;;;;;6.72;5.10;;;32.10;91.40;;;;;;4973109;28;20026;-76
2023/07/15 10:08:24;;;;;;;10.82;5.68;;;32.10;91.40;;;;;;4972768;28;20051;-78
2023/07/15 10:10:50;;;;;;;8.82;5.63;;;32.00;90.90;;;;;;4972652;28;20035;-71
2023/07/15 10:13:15;;;;;;;10.43;6.55;;;31.90;91.60;;;;;;4972604;28;20065;-72
2023/07/15 10:15:44;;;;;;;7.78;5.47;;;31.60;92.00;;;;;;4972483;28;20031;-76
2023/07/15 10:18:17;;;;;;;9.50;5.75;;;31.90;92.70;;;;;;4972704;28;20488;-75
2023/07/15 10:20:46;;;;;;;8.32;5.97;;;32.00;91.70;;;;;;4961296;28;20372;-77
2023/07/15 10:23:23;;;;;;;10.05;5.43;;;31.90;91.40;;;;;;4972562;28;20130;-76
2023/07/15 10:25:58;;;;;;;13.65;6.07;;;32.20;92.20;;;;;;4972971;28;20027;-74
2023/07/15 10:28:24;;;;;;;9.48;6.05;;;32.40;92.00;;;;;;4972617;28;20384;-76
2023/07/15 10:31:08;;;;;;;13.20;5.90;;;32.30;92.20;;;;;;4983535;28;20162;-75
2023/07/15 10:33:38;;;;;;;8.75;5.68;;;31.90;91.00;;;;;;4978084;28;20115;-75
2023/07/15 10:36:05;;;;;;;10.35;6.75;;;32.20;91.60;;;;;;4972400;28;20484;-76
2023/07/15 10:38:32;;;;;;;13.70;6.72;;;32.50;91.70;;;;;;4974645;28;20031;-77
2023/07/15 10:41:05;;;;;;;12.43;6.68;;;32.70;92.70;;;;;;4981585;28;20027;-76
2023/07/15 10:43:34;;;;;;;11.13;6.97;;;32.00;91.20;;;;;;4983250;28;20030;-77
2023/07/15 10:46:02;;;;;;;10.35;6.97;;;32.50;91.00;;;;;;4995259;28;20088;-76
2023/07/15 10:48:28;;;;;;;9.57;6.22;;;32.30;90.90;;;;;;4982830;28;20086;-76
2023/07/15 10:50:57;;;;;;;9.75;6.25;;;32.40;91.40;;;;;;4994460;28;20031;-76
2023/07/15 10:53:29;;;;;;;13.90;8.20;;;32.60;91.70;;;;;;4981886;28;20031;-75
2023/07/15 10:56:00;;;;;;;8.68;5.95;;;32.80;92.00;;;;;;4975952;28;20122;-75
2023/07/15 10:58:27;;;;;;;14.95;7.43;;;32.20;90.90;;;;;;4987799;28;20022;-72
2023/07/15 11:01:01;;;;;;;12.82;7.65;;;32.50;90.90;;;;;;4976166;28;20121;-77
2023/07/15 11:03:32;;;;;;;10.68;6.65;;;32.60;91.00;;;;;;4976006;28;20551;-72
2023/07/15 11:05:59;;;;;;;13.07;6.23;;;32.60;92.10;;;;;;4975771;28;20484;-73
2023/07/15 11:08:25;;;;;;;13.23;6.57;;;32.60;91.50;;;;;;4975503;28;20480;-77
2023/07/15 11:11:05;;;;;;;11.25;6.40;;;32.60;91.40;;;;;;4975800;28;20031;-76
2023/07/15 11:13:35;;;;;;;9.55;6.78;;;32.90;91.80;;;;;;4975565;28;20038;-77
2023/07/15 11:16:02;;;;;;;10.73;6.15;;;33.00;91.40;;;;;;4975863;28;20054;-73
2023/07/15 11:18:27;;;;;;;9.77;6.18;;;33.00;90.70;;;;;;4975596;28;20090;-76
2023/07/15 11:20:56;;;;;;;11.15;6.32;;;32.90;91.50;;;;;;4979285;28;20114;-74
2023/07/15 11:23:22;;;;;;;9.82;6.18;;;32.80;91.80;;;;;;4982666;28;20014;-76
2023/07/15 11:25:48;;;;;;;9.07;6.70;;;32.80;91.00;;;;;;4984709;28;20407;-72
2023/07/15 11:28:16;;;;;;;11.82;6.88;;;32.90;92.10;;;;;;4978846;28;20043;-75
2023/07/15 11:30:43;;;;;;;10.27;6.88;;;33.20;92.20;;;;;;4976301;28;20071;-77
2023/07/15 11:33:10;;;;;;;9.82;5.85;;;33.40;91.70;;;;;;4992023;28;20026;-75
2023/07/15 11:35:37;;;;;;;9.60;5.72;;;33.40;91.50;;;;;;4990369;28;20037;-72
2023/07/15 11:38:10;;;;;;;10.00;6.40;;;33.00;92.30;;;;;;4992507;28;20097;-72
2023/07/15 11:40:37;;;;;;;11.00;6.78;;;32.80;92.40;;;;;;4976299;28;20393;-77
2023/07/15 11:43:06;;;;;;;7.32;5.63;;;33.00;91.90;;;;;;4981940;28;20131;-71
2023/07/15 11:45:33;;;;;;;9.10;5.25;;;32.80;92.10;;;;;;4985404;28;20455;-74
2023/07/15 11:47:59;;;;;;;8.75;6.47;;;32.90;92.50;;;;;;4987914;28;20476;-72
2023/07/15 11:50:26;;;;;;;12.88;5.78;;;32.80;93.10;;;;;;4988174;28;20018;-72
2023/07/15 11:52:54;;;;;;;10.13;6.57;;;33.00;92.80;;;;;;4976240;28;20027;-73
2023/07/15 11:55:25;;;;;;;9.43;6.88;;;33.10;93.60;;;;;;4973447;28;20496;-74
2023/07/15 11:57:51;;;;;;;8.80;6.83;;;33.20;91.90;;;;;;4974648;28;20058;-77
2023/07/15 12:00:32;;;;;;;10.82;6.13;;;33.00;92.00;;;;;;4974817;28;20019;-72
2023/07/15 12:02:58;;;;;;;7.40;5.57;;;33.40;92.90;;;;;;4975114;28;20110;-73
2023/07/15 12:05:25;;;;;;;9.02;6.53;;;33.50;91.50;;;;;;4974771;28;20030;-79
2023/07/15 12:07:52;;;;;;;12.60;6.45;;;33.50;91.80;;;;;;4973985;28;20043;-78
2023/07/15 12:10:19;;;;;;;12.43;5.72;;;33.40;92.10;;;;;;4974438;28;20484;-72
2023/07/15 12:12:46;;;;;;;10.10;5.93;;;33.40;90.40;;;;;;4974455;28;20415;-74
2023/07/15 12:15:15;;;;;;;16.90;6.95;;;33.40;90.60;;;;;;4971309;28;20037;-73
2023/07/15 12:17:42;;;;;;;11.25;6.35;;;33.50;90.70;;;;;;4973442;28;20035;-78
2023/07/15 12:20:09;;;;;;;13.20;7.10;;;33.70;91.00;;;;;;4975054;28;20022;-72
2023/07/15 12:22:35;;;;;;;12.00;6.03;;;33.60;91.20;;;;;;4974316;28;20035;-72
2023/07/15 12:25:01;;;;;;;11.00;6.85;;;33.70;92.30;;;;;;4974473;28;20025;-75
2023/07/15 12:27:27;;;;;;;11.68;6.88;;;33.80;91.30;;;;;;4974174;28;20043;-78
2023/07/15 12:29:53;;;;;;;10.07;6.32;;;33.80;92.30;;;;;;4974440;28;20030;-72
2023/07/15 12:32:19;;;;;;;10.15;7.10;;;33.70;91.00;;;;;;4974260;28;20032;-72
2023/07/15 12:34:44;;;;;;;8.90;5.82;;;33.70;92.50;;;;;;4974472;28;20491;-73
2023/07/15 12:37:10;;;;;;;9.85;6.85;;;33.50;92.20;;;;;;4974375;28;20034;-73
2023/07/15 12:39:36;;;;;;;10.75;6.85;;;33.50;92.00;;;;;;4974241;28;20101;-73
2023/07/15 12:42:03;;;;;;;8.57;6.40;;;33.60;92.80;;;;;;4961320;28;20035;-77